Time;durP1;ratioP1;P1;durP2;ratioP2;P2;SDS_P1;SDS_P2;PMS_P1;PMS_P2;Temp;Humidity;BMP_temperature;BMP_pressure;BME280_temperature;BME280_humidity;BME280_pressure;Samples;Min_cycle;Max_cycle;Signal;HPM_P1;HPM_P2
2021/08/03 00:05:57;;;;;;;2.55;0.95;;;21.60;58.20;;;;;;20739682;28;20418;-20
2021/08/03 00:16:01;;;;;;;5.35;1.23;;;21.70;58.40;;;;;;20740385;28;20383;-20
2021/08/03 00:26:02;;;;;;;2.97;0.70;;;21.70;58.70;;;;;;20748538;28;20022;-20
2021/08/03 00:36:03;;;;;;;1.77;0.63;;;21.70;58.90;;;;;;20746073;28;20494;-20
2021/08/03 00:46:05;;;;;;;2.83;0.75;;;21.70;58.80;;;;;;20739253;28;20410;-21
2021/08/03 00:56:05;;;;;;;3.33;1.27;;;21.70;58.90;;;;;;20737881;28;20041;-19
2021/08/03 01:06:31;;;;;;;1.70;0.70;;;21.70;58.90;;;;;;20738269;28;20065;-19
2021/08/03 01:16:44;;;;;;;6.18;0.65;;;21.70;59.00;;;;;;20705029;28;20042;-19
2021/08/03 01:27:13;;;;;;;2.42;0.70;;;21.60;59.00;;;;;;20736939;28;20034;-20
2021/08/03 01:37:18;;;;;;;1.10;0.40;;;21.60;59.10;;;;;;20747456;28;20395;-20
2021/08/03 01:47:22;;;;;;;1.92;0.47;;;21.70;59.10;;;;;;20751921;28;20034;-19
2021/08/03 01:57:23;;;;;;;3.90;0.40;;;21.60;59.10;;;;;;20751314;28;20072;-20
2021/08/03 02:07:25;;;;;;;1.98;0.47;;;21.60;59.20;;;;;;20750294;28;20038;-20
2021/08/03 02:17:26;;;;;;;1.73;0.40;;;21.60;59.20;;;;;;20749208;28;20042;-20
2021/08/03 02:27:27;;;;;;;1.73;0.65;;;21.60;59.30;;;;;;20748670;28;20054;-20
2021/08/03 02:37:34;;;;;;;1.38;0.40;;;21.60;59.30;;;;;;20746343;28;20048;-19
2021/08/03 02:47:42;;;;;;;1.13;0.40;;;21.60;59.30;;;;;;20747132;28;20026;-20
2021/08/03 02:57:46;;;;;;;1.77;0.35;;;21.60;59.30;;;;;;20747216;28;20042;-20
2021/08/03 03:07:50;;;;;;;2.83;0.60;;;21.60;59.30;;;;;;20746007;28;20048;-20
2021/08/03 03:17:52;;;;;;;1.42;0.40;;;21.60;59.30;;;;;;20811868;23;20049;-21
2021/08/03 03:27:57;;;;;;;5.85;1.15;;;21.50;59.30;;;;;;20826770;28;20095;-19
2021/08/03 03:37:59;;;;;;;1.58;0.43;;;21.50;59.30;;;;;;20824987;28;20038;-20
2021/08/03 03:48:02;;;;;;;1.85;0.32;;;21.50;59.30;;;;;;20824057;28;20037;-19
2021/08/03 03:58:04;;;;;;;1.20;0.50;;;21.50;59.30;;;;;;20823532;28;20033;-21
2021/08/03 04:08:08;;;;;;;1.90;0.50;;;21.50;59.40;;;;;;20823445;28;20105;-20
2021/08/03 04:18:09;;;;;;;2.13;0.43;;;21.50;59.40;;;;;;20822657;28;20064;-20
2021/08/03 04:28:09;;;;;;;1.13;0.50;;;21.50;59.40;;;;;;20822213;28;20033;-20
2021/08/03 04:38:10;;;;;;;1.95;0.30;;;21.50;59.40;;;;;;20821594;28;20049;-20
2021/08/03 04:48:13;;;;;;;6.10;0.60;;;21.50;59.40;;;;;;20821855;28;20490;-20
2021/08/03 04:58:13;;;;;;;6.18;1.40;;;21.50;59.40;;;;;;20826522;28;20564;-20
2021/08/03 05:08:14;;;;;;;18.70;4.50;;;21.50;59.40;;;;;;20828974;28;20029;-18
2021/08/03 05:18:15;;;;;;;13.05;3.88;;;21.50;59.80;;;;;;20847815;28;20099;-20
2021/08/03 05:28:16;;;;;;;10.32;2.20;;;21.40;59.70;;;;;;20835042;28;20033;-20
2021/08/03 05:38:16;;;;;;;24.27;3.65;;;21.50;59.70;;;;;;20835577;28;20504;-20
2021/08/03 05:48:17;;;;;;;12.43;2.97;;;21.50;59.60;;;;;;20835842;28;20547;-20
2021/08/03 05:58:17;;;;;;;11.02;2.72;;;21.50;59.50;;;;;;20832904;28;20038;-20
2021/08/03 06:08:24;;;;;;;7.22;2.50;;;21.50;59.60;;;;;;20832293;28;20033;-21
2021/08/03 06:18:37;;;;;;;9.32;2.47;;;21.60;59.60;;;;;;20831001;28;20026;-19
2021/08/03 06:28:39;;;;;;;5.72;2.13;;;21.50;59.60;;;;;;20831494;28;20033;-20
2021/08/03 06:38:40;;;;;;;5.70;1.77;;;21.60;59.50;;;;;;20830046;28;20080;-20
2021/08/03 06:48:46;;;;;;;4.77;1.70;;;21.60;59.40;;;;;;20827484;28;20053;-20
2021/08/03 06:58:53;;;;;;;4.47;1.42;;;21.60;59.30;;;;;;20829541;28;20471;-19
2021/08/03 07:08:55;;;;;;;5.63;1.37;;;21.60;59.30;;;;;;20830336;28;20556;-20
2021/08/03 07:18:56;;;;;;;4.25;0.70;;;21.60;59.20;;;;;;20835755;28;20460;-19
2021/08/03 07:28:57;;;;;;;7.88;1.67;;;21.60;59.20;;;;;;20826255;28;20041;-19
2021/08/03 07:38:59;;;;;;;4.40;1.65;;;21.60;59.10;;;;;;20826747;28;20049;-19
2021/08/03 07:49:02;;;;;;;6.65;1.20;;;21.60;59.20;;;;;;20823738;28;20033;-20
2021/08/03 07:59:03;;;;;;;4.20;1.75;;;21.60;59.20;;;;;;20825188;28;20507;-18
2021/08/03 08:09:03;;;;;;;4.45;1.27;;;21.60;59.10;;;;;;20823665;28;20406;-19
2021/08/03 08:19:04;;;;;;;16.25;1.65;;;21.70;59.00;;;;;;20823307;28;20044;-20
2021/08/03 08:29:05;;;;;;;8.43;1.50;;;21.70;59.60;;;;;;20822500;28;20033;-20
2021/08/03 08:39:07;;;;;;;23.25;3.28;;;21.70;59.70;;;;;;20821801;28;20040;-20
2021/08/03 08:49:07;;;;;;;9.90;2.08;;;21.70;59.90;;;;;;20832974;28;20076;-20
2021/08/03 08:59:08;;;;;;;15.75;1.40;;;21.80;60.00;;;;;;20826708;28;20037;-21
2021/08/03 09:09:16;;;;;;;14.18;1.60;;;21.80;59.90;;;;;;20821424;28;20047;-20
2021/08/03 09:19:28;;;;;;;10.95;1.30;;;21.80;59.60;;;;;;20837192;23;20059;-20
2021/08/03 09:29:45;;;;;;;38.88;4.47;;;21.80;59.50;;;;;;20771525;28;20112;-21
2021/08/03 09:39:47;;;;;;;17.48;2.67;;;21.90;59.40;;;;;;20749422;28;20048;-21
2021/08/03 09:49:50;;;;;;;22.33;2.83;;;21.90;59.50;;;;;;20741386;28;20030;-21
2021/08/03 09:59:52;;;;;;;16.08;1.80;;;21.90;59.50;;;;;;20762855;28;20414;-21
2021/08/03 10:09:53;;;;;;;13.02;1.95;;;21.90;59.30;;;;;;20750447;28;20506;-21
2021/08/03 10:19:58;;;;;;;10.45;1.73;;;22.00;59.30;;;;;;20749318;28;20044;-21
2021/08/03 10:29:59;;;;;;;10.02;2.05;;;22.00;58.90;;;;;;20761699;28;20042;-21
2021/08/03 10:40:00;;;;;;;11.68;1.63;;;22.10;58.80;;;;;;20748532;28;20045;-21
2021/08/03 10:50:06;;;;;;;19.23;2.10;;;22.10;58.70;;;;;;20747573;28;20045;-21
2021/08/03 11:00:07;;;;;;;14.20;1.77;;;22.10;58.70;;;;;;20746995;28;20033;-21
2021/08/03 11:10:14;;;;;;;10.63;2.22;;;22.10;58.60;;;;;;20728484;28;20084;-21
2021/08/03 11:20:33;;;;;;;11.02;2.25;;;22.20;58.50;;;;;;20744677;28;20052;-21
2021/08/03 11:30:33;;;;;;;19.83;2.10;;;22.20;58.40;;;;;;20744179;28;20205;-21
2021/08/03 11:40:36;;;;;;;7.45;1.50;;;22.20;58.50;;;;;;20744833;28;20061;-21
2021/08/03 11:50:41;;;;;;;9.43;2.17;;;22.20;58.80;;;;;;20742756;28;20037;-21
2021/08/03 12:00:41;;;;;;;7.55;1.77;;;22.20;59.00;;;;;;20740453;28;20200;-21
2021/08/03 12:10:48;;;;;;;9.68;2.33;;;22.20;59.00;;;;;;20742656;28;20243;-21
2021/08/03 12:20:48;;;;;;;27.48;2.92;;;22.30;58.80;;;;;;20747696;28;20038;-21
2021/08/03 12:30:49;;;;;;;14.93;2.17;;;22.30;59.00;;;;;;20752601;28;20030;-21
2021/08/03 12:40:49;;;;;;;13.85;2.22;;;22.30;60.10;;;;;;20740936;28;20096;-23
2021/08/03 12:50:52;;;;;;;18.40;4.97;;;22.40;60.80;;;;;;20739144;28;20038;-20
2021/08/03 13:00:53;;;;;;;26.60;5.72;;;22.40;61.50;;;;;;20737383;28;20065;-21
2021/08/03 13:10:53;;;;;;;28.98;6.45;;;22.40;62.30;;;;;;20738365;28;20042;-21
2021/08/03 13:20:54;;;;;;;17.60;5.70;;;22.40;62.20;;;;;;20735547;28;20124;-21
2021/08/03 13:30:54;;;;;;;22.40;5.72;;;22.40;62.30;;;;;;20759405;28;20034;-21
2021/08/03 13:40:55;;;;;;;18.55;5.47;;;22.30;62.00;;;;;;20757734;28;20570;-21
2021/08/03 13:50:55;;;;;;;24.00;6.05;;;22.40;62.10;;;;;;20754012;28;20045;-21
2021/08/03 14:00:56;;;;;;;35.85;6.38;;;22.30;61.60;;;;;;20765716;28;20037;-21
2021/08/03 14:10:56;;;;;;;22.25;6.07;;;22.30;61.80;;;;;;20750569;28;20041;-20
2021/08/03 14:20:57;;;;;;;38.50;6.78;;;22.30;62.00;;;;;;20748947;28;20042;-21
2021/08/03 14:30:58;;;;;;;31.00;5.85;;;22.40;62.00;;;;;;20748502;28;20038;-20
2021/08/03 14:40:58;;;;;;;12.27;4.77;;;22.30;61.90;;;;;;20748609;28;20048;-21
2021/08/03 14:51:00;;;;;;;15.68;5.65;;;22.30;61.60;;;;;;20758865;28;20110;-20
2021/08/03 15:01:01;;;;;;;15.80;4.38;;;22.20;62.00;;;;;;20759441;28;20069;-21
2021/08/03 15:11:02;;;;;;;7.70;3.50;;;22.20;62.30;;;;;;20758599;28;20047;-19
2021/08/03 15:21:03;;;;;;;6.45;3.53;;;22.20;62.50;;;;;;20751011;28;20052;-21
2021/08/03 15:31:03;;;;;;;10.27;3.50;;;22.20;62.70;;;;;;20746002;28;20124;-20
2021/08/03 15:41:04;;;;;;;6.22;3.03;;;22.20;62.60;;;;;;20744413;28;20406;-20
2021/08/03 15:51:05;;;;;;;7.82;2.78;;;22.10;62.90;;;;;;20741217;28;20442;-21
2021/08/03 16:01:05;;;;;;;5.50;2.85;;;22.10;62.60;;;;;;20742958;28;20065;-21
2021/08/03 16:11:06;;;;;;;4.07;2.85;;;22.10;62.60;;;;;;20740258;28;20049;-21
2021/08/03 16:21:08;;;;;;;8.50;3.35;;;22.10;62.90;;;;;;20740513;28;20041;-20
2021/08/03 16:31:11;;;;;;;16.25;3.95;;;22.20;63.20;;;;;;20737562;28;20065;-21
2021/08/03 16:41:14;;;;;;;11.90;3.38;;;22.10;63.30;;;;;;20726853;28;20117;-21
2021/08/03 16:51:21;;;;;;;11.25;2.92;;;22.10;63.40;;;;;;20733075;28;20038;-22
2021/08/03 17:01:34;;;;;;;16.58;3.78;;;22.20;63.00;;;;;;20762277;28;20113;-22
2021/08/03 17:12:07;;;;;;;23.60;5.05;;;22.10;63.10;;;;;;20783079;28;20049;-21
2021/08/03 17:22:10;;;;;;;29.92;5.45;;;22.10;64.20;;;;;;20753717;28;20455;-21
2021/08/03 17:32:13;;;;;;;24.05;7.18;;;22.10;64.40;;;;;;20772275;28;20044;-21
2021/08/03 17:42:13;;;;;;;31.92;8.60;;;22.20;64.30;;;;;;20776976;28;20034;-22
2021/08/03 17:52:16;;;;;;;17.67;7.17;;;22.30;63.80;;;;;;20765947;28;20070;-20
2021/08/03 18:02:19;;;;;;;17.00;6.72;;;22.30;63.40;;;;;;20767311;28;20476;-21
2021/08/03 18:12:20;;;;;;;27.00;8.10;;;22.30;63.30;;;;;;20763169;28;20046;-21
2021/08/03 18:22:21;;;;;;;20.80;7.05;;;22.30;63.20;;;;;;20750407;28;20030;-21
2021/08/03 18:32:37;;;;;;;16.70;6.60;;;22.30;63.30;;;;;;20750500;28;20117;-21
2021/08/03 18:42:45;;;;;;;19.20;7.70;;;22.30;63.40;;;;;;20749889;28;20072;-20
2021/08/03 18:52:46;;;;;;;13.73;6.10;;;22.30;63.50;;;;;;20754875;28;20034;-20
2021/08/03 19:02:48;;;;;;;43.10;21.17;;;22.30;63.30;;;;;;20756740;28;20034;-20
2021/08/03 19:12:57;;;;;;;35.17;12.18;;;22.10;63.50;;;;;;20762590;28;20037;-20
2021/08/03 19:23:02;;;;;;;28.10;10.52;;;22.10;63.50;;;;;;20744330;28;20041;-21
2021/08/03 19:33:05;;;;;;;14.57;6.90;;;22.10;63.30;;;;;;20744090;28;20094;-21
2021/08/03 19:43:05;;;;;;;18.40;7.22;;;22.00;63.00;;;;;;20744262;28;20042;-20
2021/08/03 19:53:11;;;;;;;19.35;5.25;;;22.10;63.10;;;;;;20741196;28;20104;-20
2021/08/03 20:03:12;;;;;;;30.77;12.73;;;22.10;63.50;;;;;;20738673;28;20041;-20
2021/08/03 20:13:13;;;;;;;20.38;11.05;;;22.10;63.50;;;;;;20741264;28;20057;-20
2021/08/03 20:23:14;;;;;;;17.60;9.60;;;22.20;63.30;;;;;;20740589;28;20045;-20
2021/08/03 20:33:19;;;;;;;23.83;9.63;;;22.30;63.70;;;;;;20737892;28;20398;-21
2021/08/03 20:43:22;;;;;;;17.58;8.10;;;22.30;64.50;;;;;;20738846;28;20494;-20
2021/08/03 20:53:23;;;;;;;19.38;8.35;;;22.20;64.20;;;;;;20748394;28;20041;-21
2021/08/03 21:03:38;;;;;;;20.55;8.50;;;22.20;64.60;;;;;;20754473;28;20395;-21
2021/08/03 21:13:40;;;;;;;19.95;7.50;;;22.30;64.50;;;;;;20740926;28;20057;-21
2021/08/03 21:23:41;;;;;;;16.15;6.57;;;22.30;64.60;;;;;;20740550;28;20457;-21
2021/08/03 21:33:42;;;;;;;13.90;6.85;;;22.30;64.70;;;;;;20746381;28;20509;-21
2021/08/03 21:43:42;;;;;;;12.57;6.93;;;22.20;64.60;;;;;;20744091;28;20046;-21
2021/08/03 21:53:43;;;;;;;17.98;7.55;;;22.30;64.40;;;;;;20746596;28;20042;-21
2021/08/03 22:03:44;;;;;;;14.18;7.93;;;22.30;65.00;;;;;;20748457;28;20038;-21
2021/08/03 22:13:44;;;;;;;18.85;8.50;;;22.30;64.90;;;;;;20748148;28;20044;-21
2021/08/03 22:23:45;;;;;;;14.77;6.90;;;22.30;65.00;;;;;;20747640;28;20041;-21
2021/08/03 22:33:45;;;;;;;11.63;7.60;;;22.30;65.30;;;;;;20748753;28;20096;-20
2021/08/03 22:43:46;;;;;;;17.23;7.32;;;22.20;65.00;;;;;;20748894;28;20032;-20
2021/08/03 22:53:46;;;;;;;15.73;7.75;;;22.30;65.10;;;;;;20747737;28;20038;-19
2021/08/03 23:03:47;;;;;;;9.30;6.50;;;22.30;65.20;;;;;;20745327;28;20030;-19
2021/08/03 23:13:47;;;;;;;11.32;7.65;;;22.30;65.50;;;;;;20744951;28;20038;-22
2021/08/03 23:23:48;;;;;;;14.32;7.30;;;22.30;65.10;;;;;;20744121;28;20038;-21
2021/08/03 23:33:49;;;;;;;11.38;7.25;;;22.20;65.60;;;;;;20743832;28;20109;-21
2021/08/03 23:43:49;;;;;;;11.40;6.80;;;22.10;65.70;;;;;;20742859;28;20041;-21
2021/08/03 23:53:50;;;;;;;11.90;6.22;;;22.20;65.70;;;;;;20742395;28;20399;-20
